Time;durP1;ratioP1;P1;durP2;ratioP2;P2;SDS_P1;SDS_P2;PMS_P1;PMS_P2;Temp;Humidity;BMP_temperature;BMP_pressure;BME280_temperature;BME280_humidity;BME280_pressure;Samples;Min_cycle;Max_cycle;Signal;HPM_P1;HPM_P2
2022/10/28 00:00:20;;;;;;;17.15;8.73;;;;;;;;;;5082604;28;20271;-69
2022/10/28 00:02:45;;;;;;;20.65;9.25;;;;;;;;;;5075719;28;20199;-69
2022/10/28 00:05:10;;;;;;;20.73;8.45;;;;;;;;;;5077763;28;20234;-69
2022/10/28 00:07:35;;;;;;;16.63;8.85;;;;;;;;;;5080300;28;20188;-69
2022/10/28 00:10:01;;;;;;;18.92;9.68;;;;;;;;;;5083648;28;20203;-67
2022/10/28 00:12:26;;;;;;;18.95;9.38;;;;;;;;;;5069915;28;20237;-68
2022/10/28 00:14:51;;;;;;;21.67;8.82;;;;;;;;;;5070616;28;20195;-69
2022/10/28 00:17:17;;;;;;;17.30;9.38;;;;;;;;;;5070321;28;20180;-70
2022/10/28 00:19:42;;;;;;;22.50;9.32;;;;;;;;;;5071737;28;20184;-69
2022/10/28 00:22:07;;;;;;;20.92;9.98;;;;;;;;;;5082926;28;20192;-67
2022/10/28 00:24:33;;;;;;;20.80;9.30;;;;;;;;;;5077456;28;20180;-68
2022/10/28 00:26:58;;;;;;;14.45;9.02;;;;;;;;;;5069427;28;20318;-68
2022/10/28 00:29:23;;;;;;;22.25;8.75;;;;;;;;;;5081666;28;20349;-68
2022/10/28 00:31:49;;;;;;;20.27;9.73;;;;;;;;;;5081222;28;20200;-69
2022/10/28 00:34:17;;;;;;;19.10;9.75;;;;;;;;;;5079663;28;20284;-69
2022/10/28 00:36:44;;;;;;;18.02;9.45;;;;;;;;;;5071673;28;20679;-68
2022/10/28 00:39:13;;;;;;;20.90;10.32;;;;;;;;;;5076534;28;20192;-68
2022/10/28 00:41:42;;;;;;;22.00;10.05;;;;;;;;;;5072577;28;20241;-68
2022/10/28 00:44:39;;;;;;;17.85;9.30;;;;;;;;;;5072847;28;20558;-69
2022/10/28 00:47:30;;;;;;;22.40;9.18;;;;;;;;;;5040043;28;20188;-68
2022/10/28 00:50:02;;;;;;;15.40;9.32;;;;;;;;;;5075441;28;20299;-68
2022/10/28 00:52:29;;;;;;;19.38;10.20;;;;;;;;;;5076472;28;20176;-69
2022/10/28 00:54:58;;;;;;;13.68;8.73;;;;;;;;;;5081093;28;20199;-69
2022/10/28 00:57:28;;;;;;;20.25;9.45;;;;;;;;;;5077186;28;20669;-69
2022/10/28 00:59:54;;;;;;;15.05;8.95;;;;;;;;;;5077050;28;20192;-69
2022/10/28 01:02:20;;;;;;;17.50;9.23;;;;;;;;;;5080776;28;20264;-69
2022/10/28 01:04:46;;;;;;;24.08;9.98;;;;;;;;;;5073511;28;20238;-69
2022/10/28 01:07:13;;;;;;;19.17;8.68;;;;;;;;;;5070876;28;20700;-69
2022/10/28 01:09:39;;;;;;;18.42;9.30;;;;;;;;;;5074322;28;20652;-68
2022/10/28 01:12:34;;;;;;;25.23;10.13;;;;;;;;;;5071506;28;20187;-67
2022/10/28 01:15:11;;;;;;;21.50;9.35;;;;;;;;;;5074490;28;20204;-69
2022/10/28 01:18:14;;;;;;;18.35;9.48;;;;;;;;;;5068246;28;20190;-69
2022/10/28 01:21:30;;;;;;;17.08;9.23;;;;;;;;;;5071365;28;20544;-69
2022/10/28 01:24:00;;;;;;;19.80;9.75;;;;;;;;;;5069967;28;20258;-69
2022/10/28 01:27:02;;;;;;;20.98;9.73;;;;;;;;;;5085808;28;20527;-68
2022/10/28 01:30:13;;;;;;;18.92;9.63;;;;;;;;;;5072456;28;20244;-68
2022/10/28 01:32:47;;;;;;;20.00;10.05;;;;;;;;;;5084742;28;20203;-66
2022/10/28 01:35:48;;;;;;;22.83;10.48;;;;;;;;;;5079373;28;20653;-68
2022/10/28 01:38:40;;;;;;;24.95;11.10;;;;;;;;;;5071178;28;20653;-67
2022/10/28 01:41:26;;;;;;;15.07;10.60;;;;;;;;;;5070792;28;20184;-69
2022/10/28 01:44:22;;;;;;;26.08;10.80;;;;;;;;;;5073025;28;20184;-69
2022/10/28 01:47:03;;;;;;;24.35;12.35;;;;;;;;;;5070118;28;20183;-68
2022/10/28 01:49:41;;;;;;;22.80;10.93;;;;;;;;;;5082169;28;20191;-68
2022/10/28 01:52:11;;;;;;;20.77;11.48;;;;;;;;;;5083270;28;20180;-68
2022/10/28 01:54:40;;;;;;;25.33;11.65;;;;;;;;;;5078519;28;20212;-68
2022/10/28 01:57:05;;;;;;;19.15;10.38;;;;;;;;;;5080505;28;20180;-68
2022/10/28 01:59:33;;;;;;;21.67;11.07;;;;;;;;;;5080269;28;20203;-68
2022/10/28 02:01:58;;;;;;;25.83;10.85;;;;;;;;;;5077300;28;20539;-68
2022/10/28 02:04:24;;;;;;;19.38;10.93;;;;;;;;;;5081986;28;20415;-68
2022/10/28 02:06:53;;;;;;;23.48;11.68;;;;;;;;;;5076714;28;20177;-68
2022/10/28 02:09:21;;;;;;;22.25;11.93;;;;;;;;;;5077020;28;20181;-68
2022/10/28 02:11:59;;;;;;;22.95;11.63;;;;;;;;;;5080419;28;20176;-69
2022/10/28 02:14:24;;;;;;;23.45;11.68;;;;;;;;;;5078689;28;20207;-69
2022/10/28 02:17:10;;;;;;;24.08;11.43;;;;;;;;;;5074305;28;20193;-68
2022/10/28 02:19:44;;;;;;;25.13;11.60;;;;;;;;;;5080769;28;20185;-68
2022/10/28 02:22:27;;;;;;;23.67;10.80;;;;;;;;;;5075710;28;20183;-68
2022/10/28 02:25:04;;;;;;;20.45;12.13;;;;;;;;;;5074932;28;20169;-68
2022/10/28 02:27:29;;;;;;;25.08;11.40;;;;;;;;;;5071715;28;20536;-68
2022/10/28 02:30:17;;;;;;;27.52;12.20;;;;;;;;;;5078055;28;20230;-68
2022/10/28 02:32:48;;;;;;;23.17;11.85;;;;;;;;;;5077808;28;20237;-68
2022/10/28 02:35:21;;;;;;;24.98;11.07;;;;;;;;;;5070847;28;20185;-68
2022/10/28 02:37:48;;;;;;;24.50;11.65;;;;;;;;;;5072924;28;20188;-68
2022/10/28 02:40:20;;;;;;;25.42;11.40;;;;;;;;;;5079597;28;20183;-68
2022/10/28 02:42:49;;;;;;;24.15;12.98;;;;;;;;;;5078535;28;20211;-68
2022/10/28 02:45:19;;;;;;;28.23;12.23;;;;;;;;;;5080911;28;20173;-68
2022/10/28 02:47:51;;;;;;;22.85;12.60;;;;;;;;;;5076086;28;20333;-68
2022/10/28 02:50:20;;;;;;;23.48;12.15;;;;;;;;;;5081270;28;20176;-69
2022/10/28 02:52:51;;;;;;;33.65;12.70;;;;;;;;;;5079160;28;20671;-69
2022/10/28 02:55:19;;;;;;;24.98;11.85;;;;;;;;;;5074760;28;20401;-68
2022/10/28 02:57:48;;;;;;;27.63;11.65;;;;;;;;;;5082968;28;20212;-68
2022/10/28 03:00:19;;;;;;;19.27;11.38;;;;;;;;;;5070255;28;20598;-68
2022/10/28 03:02:45;;;;;;;26.50;13.00;;;;;;;;;;5073892;28;20193;-68
2022/10/28 03:05:11;;;;;;;27.30;11.75;;;;;;;;;;5076329;28;20709;-68
2022/10/28 03:07:37;;;;;;;22.27;11.90;;;;;;;;;;5083676;28;20188;-68
2022/10/28 03:10:03;;;;;;;24.20;10.73;;;;;;;;;;5082092;28;20181;-68
2022/10/28 03:12:28;;;;;;;19.63;10.88;;;;;;;;;;5085934;28;20223;-68
2022/10/28 03:14:53;;;;;;;21.60;11.15;;;;;;;;;;5076796;28;20270;-68
2022/10/28 03:17:18;;;;;;;20.55;11.32;;;;;;;;;;5076884;28;20192;-68
2022/10/28 03:19:44;;;;;;;23.63;11.95;;;;;;;;;;5084687;28;20192;-68
2022/10/28 03:22:09;;;;;;;23.65;12.27;;;;;;;;;;5074950;28;20185;-68
2022/10/28 03:24:34;;;;;;;20.98;12.57;;;;;;;;;;5071141;28;20633;-68
2022/10/28 03:27:00;;;;;;;25.13;12.38;;;;;;;;;;5070296;28;20184;-68
2022/10/28 03:29:25;;;;;;;22.25;11.48;;;;;;;;;;5086093;28;20311;-68
2022/10/28 03:31:50;;;;;;;18.25;11.07;;;;;;;;;;5079231;28;20204;-68
2022/10/28 03:34:16;;;;;;;21.25;11.15;;;;;;;;;;5078337;28;20200;-68
2022/10/28 03:36:41;;;;;;;26.02;11.15;;;;;;;;;;5069459;28;20759;-68
2022/10/28 03:39:07;;;;;;;20.95;11.07;;;;;;;;;;5075587;28;20207;-68
2022/10/28 03:41:32;;;;;;;16.70;10.68;;;;;;;;;;5079966;28;20181;-68
2022/10/28 03:43:57;;;;;;;17.00;9.98;;;;;;;;;;5079162;28;20207;-68
2022/10/28 03:46:23;;;;;;;20.63;9.82;;;;;;;;;;5080794;28;20184;-68
2022/10/28 03:48:48;;;;;;;20.60;9.88;;;;;;;;;;5081881;28;20274;-68
2022/10/28 03:51:13;;;;;;;18.70;9.95;;;;;;;;;;5079547;28;20772;-68
2022/10/28 03:53:39;;;;;;;15.40;9.52;;;;;;;;;;5077307;28;20258;-68
2022/10/28 03:56:04;;;;;;;22.30;10.40;;;;;;;;;;5074170;28;20183;-68
2022/10/28 03:58:30;;;;;;;16.05;10.15;;;;;;;;;;5076567;28;20180;-68
2022/10/28 04:00:55;;;;;;;24.98;11.48;;;;;;;;;;5086967;28;20184;-68
2022/10/28 04:03:23;;;;;;;23.52;10.00;;;;;;;;;;5084620;28;20176;-68
2022/10/28 04:05:48;;;;;;;18.42;10.85;;;;;;;;;;5073448;28;20660;-69
2022/10/28 04:08:18;;;;;;;22.60;10.60;;;;;;;;;;5074453;28;20191;-68
2022/10/28 04:10:44;;;;;;;24.73;11.82;;;;;;;;;;5078419;28;20583;-68
2022/10/28 04:13:10;;;;;;;21.80;11.05;;;;;;;;;;5080467;28;20176;-68
2022/10/28 04:15:35;;;;;;;23.48;12.27;;;;;;;;;;5071973;28;20261;-68
2022/10/28 04:18:01;;;;;;;18.85;10.80;;;;;;;;;;5072191;28;20187;-68
2022/10/28 04:20:28;;;;;;;20.88;11.05;;;;;;;;;;5086154;28;20259;-68
2022/10/28 04:22:53;;;;;;;22.17;10.73;;;;;;;;;;5075222;28;20261;-68
2022/10/28 04:25:20;;;;;;;17.92;10.57;;;;;;;;;;5078139;28;20226;-68
2022/10/28 04:27:45;;;;;;;20.33;10.50;;;;;;;;;;5071342;28;20184;-68
2022/10/28 04:30:11;;;;;;;21.55;11.73;;;;;;;;;;5068608;28;20247;-68
2022/10/28 04:32:37;;;;;;;27.65;11.80;;;;;;;;;;5073661;28;20291;-68
2022/10/28 04:35:03;;;;;;;23.42;12.23;;;;;;;;;;5078976;28;20288;-68
2022/10/28 04:37:29;;;;;;;27.27;12.40;;;;;;;;;;5069545;28;20195;-68
2022/10/28 04:39:54;;;;;;;24.30;12.93;;;;;;;;;;5076187;28;20476;-68
2022/10/28 04:42:19;;;;;;;25.20;12.48;;;;;;;;;;5082057;28;20210;-68
2022/10/28 04:44:44;;;;;;;23.88;12.10;;;;;;;;;;5070202;28;20204;-68
2022/10/28 04:47:10;;;;;;;26.45;12.43;;;;;;;;;;5074016;28;20267;-68
2022/10/28 04:49:35;;;;;;;28.92;12.15;;;;;;;;;;5076161;28;20184;-68
2022/10/28 04:52:00;;;;;;;21.45;11.15;;;;;;;;;;5074281;28;20732;-68
2022/10/28 04:54:26;;;;;;;20.65;12.00;;;;;;;;;;5080482;28;20203;-68
2022/10/28 04:56:53;;;;;;;21.15;11.90;;;;;;;;;;5069752;28;20200;-68
2022/10/28 04:59:19;;;;;;;28.63;12.35;;;;;;;;;;5078925;28;20245;-68
2022/10/28 05:01:44;;;;;;;19.60;11.43;;;;;;;;;;5077148;28;20181;-68
2022/10/28 05:04:09;;;;;;;23.70;11.98;;;;;;;;;;5078609;28;20173;-68
2022/10/28 05:06:35;;;;;;;25.90;14.02;;;;;;;;;;5082747;28;20552;-68
2022/10/28 05:09:00;;;;;;;25.33;13.07;;;;;;;;;;5085638;28;20179;-68
2022/10/28 05:11:25;;;;;;;32.92;14.75;;;;;;;;;;5083160;28;20264;-68
2022/10/28 05:13:52;;;;;;;28.45;15.05;;;;;;;;;;5079616;28;20302;-68
2022/10/28 05:16:17;;;;;;;30.60;14.52;;;;;;;;;;5077886;28;20236;-68
2022/10/28 05:18:42;;;;;;;39.10;16.85;;;;;;;;;;5080875;28;20195;-68
2022/10/28 05:21:08;;;;;;;33.90;16.23;;;;;;;;;;5079577;28;20274;-68
2022/10/28 05:23:33;;;;;;;24.40;12.95;;;;;;;;;;5085931;28;20267;-67
2022/10/28 05:25:59;;;;;;;29.70;14.85;;;;;;;;;;5082039;28;20208;-68
2022/10/28 05:28:24;;;;;;;32.95;15.57;;;;;;;;;;5077767;28;20185;-68
2022/10/28 05:30:49;;;;;;;33.00;14.43;;;;;;;;;;5081761;28;20703;-68
2022/10/28 05:33:15;;;;;;;25.90;14.18;;;;;;;;;;5081275;28;20212;-68
2022/10/28 05:35:40;;;;;;;22.73;13.40;;;;;;;;;;5081880;28;20255;-68
2022/10/28 05:38:05;;;;;;;30.25;12.82;;;;;;;;;;5073124;28;20263;-68
2022/10/28 05:40:32;;;;;;;24.77;13.02;;;;;;;;;;5071930;28;20196;-68
2022/10/28 05:42:58;;;;;;;27.08;12.38;;;;;;;;;;5078550;28;20211;-68
2022/10/28 05:45:24;;;;;;;22.70;12.05;;;;;;;;;;5078015;28;20210;-68
2022/10/28 05:47:49;;;;;;;27.17;12.90;;;;;;;;;;5077007;28;20188;-68
2022/10/28 05:50:16;;;;;;;27.73;12.50;;;;;;;;;;5076355;28;20180;-68
2022/10/28 05:52:53;;;;;;;24.05;11.75;;;;;;;;;;5090015;28;20796;-68
2022/10/28 05:55:21;;;;;;;23.85;11.88;;;;;;;;;;5082483;28;20207;-68
2022/10/28 05:57:48;;;;;;;21.02;10.32;;;;;;;;;;5090795;28;20187;-68
2022/10/28 06:00:14;;;;;;;20.58;11.10;;;;;;;;;;5084356;28;20180;-68
2022/10/28 06:02:40;;;;;;;20.00;10.60;;;;;;;;;;5079190;28;20187;-68
2022/10/28 06:05:06;;;;;;;24.30;10.40;;;;;;;;;;5086459;28;20176;-68
2022/10/28 06:07:33;;;;;;;26.60;11.35;;;;;;;;;;5080404;28;20199;-68
2022/10/28 06:09:59;;;;;;;22.98;11.95;;;;;;;;;;5081545;28;20658;-68
2022/10/28 06:12:24;;;;;;;20.92;9.52;;;;;;;;;;5079710;28;20183;-67
2022/10/28 06:14:49;;;;;;;23.00;9.60;;;;;;;;;;5073888;28;20215;-67
2022/10/28 06:17:15;;;;;;;20.90;10.35;;;;;;;;;;5094978;28;20207;-68
2022/10/28 06:19:40;;;;;;;24.20;9.82;;;;;;;;;;5084431;28;20172;-68
2022/10/28 06:22:05;;;;;;;20.00;9.65;;;;;;;;;;5082463;28;20443;-68
2022/10/28 06:24:30;;;;;;;24.75;10.15;;;;;;;;;;5085283;28;20617;-67
2022/10/28 06:26:56;;;;;;;21.42;9.88;;;;;;;;;;5087705;28;20670;-68
2022/10/28 06:29:21;;;;;;;25.02;10.70;;;;;;;;;;5094237;28;20221;-68
2022/10/28 06:31:46;;;;;;;26.50;10.00;;;;;;;;;;5083661;28;20196;-68
2022/10/28 06:34:12;;;;;;;19.30;9.80;;;;;;;;;;5073724;28;20307;-67
2022/10/28 06:36:38;;;;;;;22.55;9.73;;;;;;;;;;5073887;28;20233;-68
2022/10/28 06:39:04;;;;;;;22.83;9.90;;;;;;;;;;5068997;28;20238;-67
2022/10/28 06:41:29;;;;;;;20.40;9.43;;;;;;;;;;5072981;28;20192;-67
2022/10/28 06:43:54;;;;;;;17.27;9.02;;;;;;;;;;5072236;28;20177;-68
2022/10/28 06:46:20;;;;;;;25.42;10.40;;;;;;;;;;5078974;28;20188;-68
2022/10/28 06:48:45;;;;;;;20.85;9.27;;;;;;;;;;5075630;28;20218;-68
2022/10/28 06:51:11;;;;;;;22.20;9.40;;;;;;;;;;5075224;28;20197;-67
2022/10/28 06:53:36;;;;;;;15.90;8.32;;;;;;;;;;5075806;28;20200;-68
2022/10/28 06:56:01;;;;;;;21.23;8.55;;;;;;;;;;5068037;28;20273;-67
2022/10/28 06:58:27;;;;;;;29.05;9.52;;;;;;;;;;5071403;28;20177;-68
2022/10/28 07:00:52;;;;;;;20.55;8.60;;;;;;;;;;5072685;28;20195;-67
2022/10/28 07:03:18;;;;;;;25.60;9.52;;;;;;;;;;5069617;28;20180;-68
2022/10/28 07:05:45;;;;;;;24.73;8.50;;;;;;;;;;5071304;28;20195;-67
2022/10/28 07:08:11;;;;;;;18.85;9.30;;;;;;;;;;5071610;28;20172;-67
2022/10/28 07:10:37;;;;;;;22.92;9.80;;;;;;;;;;5073161;28;20187;-67
2022/10/28 07:13:02;;;;;;;18.65;8.60;;;;;;;;;;5072108;28;20204;-68
2022/10/28 07:15:28;;;;;;;20.45;8.38;;;;;;;;;;5072688;28;20173;-68
2022/10/28 07:17:55;;;;;;;17.73;8.43;;;;;;;;;;5073010;28;20185;-68
2022/10/28 07:20:21;;;;;;;24.17;8.68;;;;;;;;;;5069286;28;20185;-68
2022/10/28 07:22:47;;;;;;;24.35;8.35;;;;;;;;;;5079285;28;20240;-67
2022/10/28 07:25:12;;;;;;;21.55;8.88;;;;;;;;;;5070866;28;20275;-68
2022/10/28 07:27:38;;;;;;;20.25;8.52;;;;;;;;;;5073754;28;20561;-68
2022/10/28 07:30:04;;;;;;;22.65;8.68;;;;;;;;;;5069901;28;20221;-67
2022/10/28 07:32:32;;;;;;;12.82;6.97;;;;;;;;;;5071843;28;20800;-67
2022/10/28 07:34:57;;;;;;;18.00;8.65;;;;;;;;;;5072319;28;20204;-67
2022/10/28 07:37:23;;;;;;;21.70;8.02;;;;;;;;;;5075473;28;20177;-67
2022/10/28 07:39:48;;;;;;;21.98;8.60;;;;;;;;;;5070292;28;20181;-67
2022/10/28 07:42:14;;;;;;;27.83;8.88;;;;;;;;;;5077408;28;20571;-67
2022/10/28 07:44:39;;;;;;;20.95;8.45;;;;;;;;;;5073171;28;20188;-67
2022/10/28 07:47:04;;;;;;;17.05;7.43;;;;;;;;;;5070944;28;20181;-68
2022/10/28 07:49:30;;;;;;;18.65;8.40;;;;;;;;;;5078753;28;20188;-67
2022/10/28 07:51:55;;;;;;;23.17;8.93;;;;;;;;;;5080153;28;20726;-68
2022/10/28 07:54:20;;;;;;;21.25;8.27;;;;;;;;;;5072743;28;20196;-67
2022/10/28 07:56:46;;;;;;;24.88;8.98;;;;;;;;;;5080304;28;20181;-67
2022/10/28 07:59:11;;;;;;;18.65;7.80;;;;;;;;;;5074286;28;20177;-68
2022/10/28 08:01:37;;;;;;;17.63;8.10;;;;;;;;;;5070581;28;20197;-68
2022/10/28 08:04:02;;;;;;;24.20;8.63;;;;;;;;;;5067331;28;20173;-68
2022/10/28 08:06:27;;;;;;;21.83;8.60;;;;;;;;;;5073614;28;20567;-68
2022/10/28 08:08:54;;;;;;;20.40;8.88;;;;;;;;;;5068946;28;20180;-68
2022/10/28 08:11:22;;;;;;;17.75;8.23;;;;;;;;;;5075830;28;20184;-68
2022/10/28 08:13:48;;;;;;;17.45;7.53;;;;;;;;;;5068833;28;20208;-68
2022/10/28 08:16:14;;;;;;;27.80;8.15;;;;;;;;;;5076753;28;20278;-68
2022/10/28 08:18:39;;;;;;;20.73;7.97;;;;;;;;;;5071924;28;20177;-67
2022/10/28 08:21:07;;;;;;;16.60;7.43;;;;;;;;;;5074122;28;20188;-67
2022/10/28 08:23:33;;;;;;;17.40;7.90;;;;;;;;;;5069562;28;20181;-68
2022/10/28 08:25:58;;;;;;;16.10;8.00;;;;;;;;;;5070447;28;20261;-67
2022/10/28 08:28:24;;;;;;;22.65;8.20;;;;;;;;;;5078249;28;20263;-68
2022/10/28 08:30:49;;;;;;;16.15;8.05;;;;;;;;;;5070542;28;20216;-69
2022/10/28 08:33:15;;;;;;;16.15;7.28;;;;;;;;;;5076159;28;20200;-68
2022/10/28 08:35:42;;;;;;;19.73;7.55;;;;;;;;;;5071140;28;20197;-68
2022/10/28 08:38:08;;;;;;;15.68;7.28;;;;;;;;;;5084185;28;20723;-68
2022/10/28 08:41:04;;;;;;;19.00;8.15;;;;;;;;;;5074293;28;20245;-68
2022/10/28 08:44:01;;;;;;;18.83;7.45;;;;;;;;;;5080504;28;20587;-68
2022/10/28 08:46:56;;;;;;;20.48;7.95;;;;;;;;;;5039669;28;20204;-68
2022/10/28 08:49:22;;;;;;;19.23;6.63;;;;;;;;;;5068906;28;20180;-68
2022/10/28 08:52:02;;;;;;;18.00;7.18;;;;;;;;;;5084385;28;20212;-68
2022/10/28 08:55:10;;;;;;;16.30;7.45;;;;;;;;;;5082982;28;20265;-68
2022/10/28 08:57:41;;;;;;;16.73;7.30;;;;;;;;;;5001015;28;20751;-69
2022/10/28 09:00:15;;;;;;;17.55;6.90;;;;;;;;;;5003471;28;20198;-68
2022/10/28 09:02:52;;;;;;;18.27;7.40;;;;;;;;;;5042863;28;20438;-67
2022/10/28 09:05:23;;;;;;;16.50;6.50;;;;;;;;;;5072311;28;20250;-67
2022/10/28 09:07:49;;;;;;;15.93;6.95;;;;;;;;;;5070244;28;20192;-69
2022/10/28 09:10:16;;;;;;;20.83;7.25;;;;;;;;;;5079066;28;20189;-69
2022/10/28 09:13:10;;;;;;;18.45;7.00;;;;;;;;;;5070188;28;20188;-68
2022/10/28 09:15:59;;;;;;;28.55;6.53;;;;;;;;;;5079344;28;20184;-69
2022/10/28 09:18:55;;;;;;;17.85;5.68;;;;;;;;;;5083685;28;20176;-68
2022/10/28 09:21:43;;;;;;;13.07;6.47;;;;;;;;;;5040535;28;20200;-68
2022/10/28 09:24:19;;;;;;;15.30;6.05;;;;;;;;;;5079585;28;20180;-67
2022/10/28 09:27:04;;;;;;;17.50;5.80;;;;;;;;;;5084188;28;20708;-68
2022/10/28 09:30:02;;;;;;;16.05;5.85;;;;;;;;;;5079432;28;20228;-67
2022/10/28 09:32:33;;;;;;;16.17;6.00;;;;;;;;;;5080603;28;20208;-68
2022/10/28 09:35:05;;;;;;;13.52;5.32;;;;;;;;;;5081951;28;20188;-67
2022/10/28 09:37:36;;;;;;;16.80;5.50;;;;;;;;;;5082351;28;20605;-68
2022/10/28 09:40:15;;;;;;;18.33;5.78;;;;;;;;;;5084701;28;20171;-68
2022/10/28 09:42:50;;;;;;;17.48;5.60;;;;;;;;;;5083805;28;20215;-67
2022/10/28 09:45:20;;;;;;;20.92;5.70;;;;;;;;;;5082971;28;20168;-68
2022/10/28 09:48:01;;;;;;;17.88;4.95;;;;;;;;;;5084279;28;20187;-68
2022/10/28 09:50:30;;;;;;;13.45;5.25;;;;;;;;;;5086030;28;20200;-68
2022/10/28 09:52:58;;;;;;;15.50;5.22;;;;;;;;;;5081214;28;20728;-67
2022/10/28 09:55:24;;;;;;;14.18;5.40;;;;;;;;;;5075830;28;20200;-72
2022/10/28 09:57:49;;;;;;;15.18;5.57;;;;;;;;;;5069475;28;20184;-68
2022/10/28 10:00:16;;;;;;;12.95;4.95;;;;;;;;;;5070687;28;20173;-69
2022/10/28 10:02:42;;;;;;;16.60;5.07;;;;;;;;;;5071334;28;20242;-67
2022/10/28 10:05:13;;;;;;;19.75;5.10;;;;;;;;;;5075078;28;20176;-67
2022/10/28 10:07:47;;;;;;;15.50;4.85;;;;;;;;;;5076089;28;20617;-68
2022/10/28 10:10:33;;;;;;;19.73;5.57;;;;;;;;;;5069103;28;20207;-68
2022/10/28 10:13:02;;;;;;;14.82;5.07;;;;;;;;;;5077565;28;20238;-68
2022/10/28 10:15:57;;;;;;;16.20;5.05;;;;;;;;;;5084392;28;20218;-67
2022/10/28 10:18:27;;;;;;;12.27;4.78;;;;;;;;;;5087914;28;20180;-67
2022/10/28 10:20:57;;;;;;;11.90;4.68;;;;;;;;;;5081931;28;20238;-69
2022/10/28 10:23:31;;;;;;;19.17;5.40;;;;;;;;;;5081302;28;20293;-68
2022/10/28 10:26:08;;;;;;;15.27;4.43;;;;;;;;;;5073132;28;20184;-68
2022/10/28 10:28:38;;;;;;;22.27;4.88;;;;;;;;;;5074372;28;20531;-68
2022/10/28 10:31:06;;;;;;;22.35;5.47;;;;;;;;;;5079859;28;20224;-68
2022/10/28 10:33:39;;;;;;;14.20;4.50;;;;;;;;;;5074538;28;20216;-68
2022/10/28 10:36:10;;;;;;;17.27;4.95;;;;;;;;;;5078183;28;20172;-68
2022/10/28 10:38:38;;;;;;;18.08;5.25;;;;;;;;;;5086581;28;20688;-68
2022/10/28 10:41:04;;;;;;;22.42;5.38;;;;;;;;;;5084257;28;20718;-68
2022/10/28 10:43:34;;;;;;;13.13;4.40;;;;;;;;;;5075736;28;20192;-68
2022/10/28 10:46:03;;;;;;;17.27;5.05;;;;;;;;;;5080068;28;20249;-68
2022/10/28 10:48:35;;;;;;;10.85;4.60;;;;;;;;;;5088293;28;20686;-68
2022/10/28 10:51:05;;;;;;;19.95;5.85;;;;;;;;;;5085541;28;20183;-69
2022/10/28 10:53:32;;;;;;;15.00;5.40;;;;;;;;;;5084143;28;20200;-68
2022/10/28 10:56:00;;;;;;;14.90;4.60;;;;;;;;;;5074888;28;20226;-70
2022/10/28 10:58:36;;;;;;;16.38;5.25;;;;;;;;;;5072802;28;20233;-68
2022/10/28 11:01:04;;;;;;;17.05;5.25;;;;;;;;;;5080420;28;20274;-67
2022/10/28 11:03:35;;;;;;;16.42;4.88;;;;;;;;;;5083379;28;20271;-68
2022/10/28 11:06:02;;;;;;;11.35;4.25;;;;;;;;;;5075587;28;20208;-68
2022/10/28 11:08:37;;;;;;;19.23;5.20;;;;;;;;;;5077548;28;20294;-68
2022/10/28 11:11:21;;;;;;;13.18;4.95;;;;;;;;;;5078489;28;20187;-68
2022/10/28 11:13:48;;;;;;;19.15;4.80;;;;;;;;;;5079346;28;20637;-67
2022/10/28 11:16:22;;;;;;;15.07;4.97;;;;;;;;;;5067591;28;20181;-69
2022/10/28 11:18:50;;;;;;;17.10;4.80;;;;;;;;;;5076339;28;20191;-67
2022/10/28 11:21:34;;;;;;;17.25;4.95;;;;;;;;;;5071106;28;20179;-69
2022/10/28 11:24:29;;;;;;;13.43;4.65;;;;;;;;;;5086713;28;20200;-68
2022/10/28 11:27:35;;;;;;;17.02;5.00;;;;;;;;;;5079335;28;20647;-68
2022/10/28 11:30:01;;;;;;;15.88;5.18;;;;;;;;;;5076012;28;20272;-68
2022/10/28 11:33:06;;;;;;;13.52;4.90;;;;;;;;;;5087339;28;20195;-67
2022/10/28 11:35:40;;;;;;;17.27;4.63;;;;;;;;;;5038945;28;20280;-67
2022/10/28 11:38:20;;;;;;;13.57;4.78;;;;;;;;;;5072967;28;20664;-68
2022/10/28 11:41:20;;;;;;;19.33;5.03;;;;;;;;;;5073694;28;20193;-70
2022/10/28 11:43:51;;;;;;;15.48;4.65;;;;;;;;;;5055370;28;20195;-67
2022/10/28 11:46:38;;;;;;;22.52;5.95;;;;;;;;;;5068055;28;20188;-67
2022/10/28 11:49:25;;;;;;;15.48;4.95;;;;;;;;;;5075387;28;20557;-68
2022/10/28 11:52:02;;;;;;;13.27;4.13;;;;;;;;;;5076203;28;20187;-67
2022/10/28 11:55:02;;;;;;;14.45;4.90;;;;;;;;;;5089661;28;20204;-68
2022/10/28 11:57:41;;;;;;;14.35;5.18;;;;;;;;;;5080119;28;20194;-67
2022/10/28 12:00:31;;;;;;;15.13;4.90;;;;;;;;;;5089211;28;20172;-68
2022/10/28 12:03:19;;;;;;;16.85;4.85;;;;;;;;;;5082183;28;20180;-67
2022/10/28 12:06:03;;;;;;;17.40;5.20;;;;;;;;;;5069831;28;20202;-68
2022/10/28 12:08:40;;;;;;;17.63;4.93;;;;;;;;;;5073968;28;20203;-68
2022/10/28 12:11:12;;;;;;;17.60;4.85;;;;;;;;;;5072081;28;20172;-68
2022/10/28 12:13:59;;;;;;;16.00;4.75;;;;;;;;;;5079287;28;20197;-68
2022/10/28 12:16:37;;;;;;;16.40;4.78;;;;;;;;;;5076943;28;20644;-68
2022/10/28 12:19:13;;;;;;;13.07;4.72;;;;;;;;;;5081424;28;20614;-68
2022/10/28 12:22:03;;;;;;;14.65;4.97;;;;;;;;;;5079924;28;20176;-67
2022/10/28 12:24:32;;;;;;;18.10;5.28;;;;;;;;;;5076591;28;20631;-67
2022/10/28 12:27:03;;;;;;;17.98;4.88;;;;;;;;;;5071323;28;20891;-68
2022/10/28 12:29:40;;;;;;;21.10;4.93;;;;;;;;;;5070262;28;20260;-67
2022/10/28 12:32:12;;;;;;;17.25;5.25;;;;;;;;;;5085628;28;20297;-67
2022/10/28 12:34:44;;;;;;;13.90;4.85;;;;;;;;;;5072976;28;20239;-67
2022/10/28 12:37:20;;;;;;;20.55;4.90;;;;;;;;;;5081992;28;20302;-67
2022/10/28 12:40:05;;;;;;;16.80;4.65;;;;;;;;;;5078345;28;20179;-68
2022/10/28 12:42:52;;;;;;;14.35;4.88;;;;;;;;;;5068282;28;20524;-67
2022/10/28 12:45:20;;;;;;;19.10;5.43;;;;;;;;;;5076916;28;20452;-67
2022/10/28 12:48:15;;;;;;;18.67;5.85;;;;;;;;;;5071442;28;20249;-68
2022/10/28 12:51:24;;;;;;;15.65;4.78;;;;;;;;;;5069052;28;20185;-67
2022/10/28 12:54:01;;;;;;;22.30;5.30;;;;;;;;;;5072981;28;20311;-67
2022/10/28 12:56:36;;;;;;;16.48;5.45;;;;;;;;;;5070816;28;20180;-73
2022/10/28 12:59:13;;;;;;;16.80;5.60;;;;;;;;;;5072905;28;20253;-68
2022/10/28 13:01:39;;;;;;;16.75;4.22;;;;;;;;;;5070443;28;20857;-67
2022/10/28 13:04:04;;;;;;;17.58;5.07;;;;;;;;;;5071303;28;20223;-67
2022/10/28 13:06:56;;;;;;;10.43;4.25;;;;;;;;;;5067468;28;20238;-67
2022/10/28 13:09:36;;;;;;;14.80;4.97;;;;;;;;;;5068569;28;20179;-67
2022/10/28 13:12:26;;;;;;;13.25;5.05;;;;;;;;;;5077803;28;20245;-67
2022/10/28 13:14:54;;;;;;;18.40;5.05;;;;;;;;;;5073337;28;20200;-67
2022/10/28 13:17:45;;;;;;;24.15;6.25;;;;;;;;;;5066180;28;20212;-67
2022/10/28 13:20:33;;;;;;;16.50;4.85;;;;;;;;;;5078042;28;20185;-67
2022/10/28 13:23:31;;;;;;;18.75;5.30;;;;;;;;;;5075788;28;20171;-68
2022/10/28 13:26:00;;;;;;;15.98;5.05;;;;;;;;;;5078213;28;20298;-68
2022/10/28 13:28:50;;;;;;;15.85;5.43;;;;;;;;;;5076968;28;20255;-67
2022/10/28 13:31:17;;;;;;;19.77;4.90;;;;;;;;;;5067852;28;20208;-67
2022/10/28 13:33:57;;;;;;;17.25;4.68;;;;;;;;;;5084409;28;20265;-67
2022/10/28 13:36:29;;;;;;;17.05;5.32;;;;;;;;;;5068683;28;20195;-68
2022/10/28 13:39:00;;;;;;;13.27;5.18;;;;;;;;;;5072819;28;20509;-68
2022/10/28 13:41:29;;;;;;;20.63;5.65;;;;;;;;;;5069207;28;20180;-67
2022/10/28 13:43:58;;;;;;;15.30;5.38;;;;;;;;;;5071035;28;20206;-67
2022/10/28 13:46:58;;;;;;;16.00;5.53;;;;;;;;;;5068089;28;20714;-67
2022/10/28 13:49:28;;;;;;;20.85;5.70;;;;;;;;;;5073551;28;20247;-67
2022/10/28 13:52:07;;;;;;;15.90;5.10;;;;;;;;;;5070033;28;20227;-67
2022/10/28 13:54:53;;;;;;;13.27;4.95;;;;;;;;;;5078372;28;20714;-67
2022/10/28 13:57:26;;;;;;;19.48;4.72;;;;;;;;;;5081384;28;20184;-67
2022/10/28 13:59:54;;;;;;;20.58;5.43;;;;;;;;;;5074964;28;20261;-67
2022/10/28 14:02:36;;;;;;;20.05;5.28;;;;;;;;;;5072980;28;20648;-67
2022/10/28 14:05:08;;;;;;;16.33;5.78;;;;;;;;;;5076025;28;20176;-67
2022/10/28 14:07:37;;;;;;;17.85;5.43;;;;;;;;;;5075532;28;20191;-67
2022/10/28 14:10:24;;;;;;;16.55;5.68;;;;;;;;;;5072594;28;20192;-67
2022/10/28 14:12:56;;;;;;;13.95;5.18;;;;;;;;;;5074756;28;20191;-67
2022/10/28 14:15:29;;;;;;;15.35;5.13;;;;;;;;;;5074612;28;20801;-67
2022/10/28 14:18:22;;;;;;;14.63;5.60;;;;;;;;;;5071464;28;20249;-67
2022/10/28 14:20:47;;;;;;;53.88;31.63;;;;;;;;;;5069148;28;20227;-67
2022/10/28 14:23:18;;;;;;;59.80;42.42;;;;;;;;;;5077235;28;20492;-67
2022/10/28 14:25:49;;;;;;;30.95;11.57;;;;;;;;;;5068524;28;20651;-67
2022/10/28 14:28:35;;;;;;;18.23;6.32;;;;;;;;;;5074854;28;20561;-67
2022/10/28 14:31:06;;;;;;;14.18;5.13;;;;;;;;;;5062696;28;20258;-68
2022/10/28 14:33:31;;;;;;;15.65;5.00;;;;;;;;;;5074676;28;20223;-67
2022/10/28 14:36:23;;;;;;;14.40;5.10;;;;;;;;;;5077365;28;20173;-67
2022/10/28 14:39:05;;;;;;;15.38;4.80;;;;;;;;;;5077846;28;20221;-67
2022/10/28 14:42:02;;;;;;;19.90;5.30;;;;;;;;;;5080263;28;20637;-67
2022/10/28 14:44:59;;;;;;;18.08;4.95;;;;;;;;;;5074984;28;20736;-67
2022/10/28 14:47:54;;;;;;;16.75;4.93;;;;;;;;;;5071161;28;20180;-67
2022/10/28 14:50:27;;;;;;;15.45;5.07;;;;;;;;;;5081476;28;20180;-67
2022/10/28 14:52:54;;;;;;;15.63;4.32;;;;;;;;;;5070932;28;20422;-66
2022/10/28 14:55:31;;;;;;;16.38;5.10;;;;;;;;;;5073716;28;20212;-67